Terminal Aerodrome Forecast
Issued by NWS San Angelo, TX

Home | Current Version | Previous Version | Text Only | Print | Product List | Glossary On
Versions: 1 2 3 4 5 6 7 8 9 10 11 12 13 14 15 16 17 18 19 20
077
FTUS44 KSJT 241121
TAFSJT
TAF
KSJT 241121Z 2412/2512 17011KT P6SM SCT015 BKN035
      TEMPO 2412/2415 BKN015
     FM241600 18011G18KT P6SM SCT070
     FM250100 15010KT P6SM SCT250=

USA.gov is the U.S. government's official web portal to all federal, state and local government web resources and services.